createdAt,value
2019-01-27T00:00:51.615Z,96077.45
2019-01-27T00:03:23.203Z,96071.23
2019-01-27T00:05:53.629Z,96067.69
2019-01-27T00:08:24.024Z,96073.67
2019-01-27T00:10:57.505Z,96072.34
2019-01-27T00:13:28.333Z,96066.63
2019-01-27T00:15:59.123Z,96062.11
2019-01-27T00:18:29.839Z,96055.16
2019-01-27T00:21:00.628Z,96057.84
2019-01-27T00:23:31.284Z,96058.81
2019-01-27T00:26:01.822Z,96049.42
2019-01-27T00:28:34.162Z,96049.08
2019-01-27T00:31:04.547Z,96051.90
2019-01-27T00:33:35.080Z,96053.24
2019-01-27T00:36:06.034Z,96053.72
2019-01-27T00:38:36.398Z,96059.09
2019-01-27T00:41:06.807Z,96050.55
2019-01-27T00:43:37.482Z,96053.34
2019-01-27T00:46:08.206Z,96050.32
2019-01-27T00:48:38.962Z,96049.45
2019-01-27T00:51:09.415Z,96051.28
2019-01-27T00:53:40.036Z,96054.83
2019-01-27T00:56:10.556Z,96056.66
2019-01-27T00:58:40.888Z,96065.09
2019-01-27T01:01:11.515Z,96061.68
2019-01-27T01:03:42.217Z,96067.39
2019-01-27T01:06:14.499Z,96067.19
2019-01-27T01:08:45.202Z,96064.98
2019-01-27T01:11:16.174Z,96067.67
2019-01-27T01:13:46.998Z,96064.27
2019-01-27T01:16:18.576Z,96075.00
2019-01-27T01:18:49.121Z,96063.78
2019-01-27T01:21:19.781Z,96063.89
2019-01-27T01:23:50.551Z,96061.20
2019-01-27T01:26:21.263Z,96065.23
2019-01-27T01:28:51.713Z,96065.23
2019-01-27T01:31:22.136Z,96065.37
2019-01-27T01:33:52.722Z,96058.17
2019-01-27T01:36:24.283Z,96053.29
2019-01-27T01:38:54.917Z,96055.97
2019-01-27T01:41:25.584Z,96056.45
2019-01-27T01:43:59.086Z,96042.69
2019-01-27T01:46:29.546Z,96032.44
2019-01-27T01:49:01.237Z,96034.78
2019-01-27T01:51:32.021Z,96027.55
2019-01-27T01:54:03.545Z,96024.05
2019-01-27T01:56:34.075Z,96024.15
2019-01-27T01:59:04.742Z,96020.13
2019-01-27T02:01:35.222Z,96019.16
2019-01-27T02:04:05.760Z,96014.75
2019-01-27T02:06:36.413Z,96009.39
2019-01-27T02:09:11.123Z,96004.40
2019-01-27T02:11:41.578Z,96001.71
2019-01-27T02:14:12.232Z,95988.91
2019-01-27T02:16:42.866Z,95993.80
2019-01-27T02:19:13.530Z,95980.86
2019-01-27T02:21:45.248Z,95972.81
2019-01-27T02:24:15.843Z,95970.75
2019-01-27T02:26:46.461Z,95973.78
2019-01-27T02:29:18.534Z,95969.03
2019-01-27T02:31:49.249Z,95959.30
2019-01-27T02:34:19.697Z,95959.78
2019-01-27T02:36:50.404Z,95963.33
2019-01-27T02:39:20.870Z,95955.76
2019-01-27T02:41:51.217Z,95953.56
2019-01-27T02:44:21.503Z,95946.84
2019-01-27T02:46:52.093Z,95952.22
2019-01-27T02:49:22.543Z,95948.70
2019-01-27T02:51:53.302Z,95935.40
2019-01-27T02:54:23.699Z,95936.26
2019-01-27T02:56:54.292Z,95936.73
2019-01-27T02:59:24.688Z,95927.48
2019-01-27T03:01:55.099Z,95918.95
2019-01-27T03:04:26.196Z,95910.05
2019-01-27T03:07:04.449Z,95906.50
2019-01-27T03:09:40.986Z,95902.48
2019-01-27T03:12:11.715Z,95898.59
2019-01-27T03:14:42.032Z,95891.03
2019-01-27T03:17:15.254Z,95891.41
2019-01-27T03:19:49.290Z,95886.04
2019-01-27T03:22:19.767Z,95877.61
2019-01-27T03:24:50.516Z,95874.11
2019-01-27T03:27:21.079Z,95871.77
2019-01-27T03:29:51.588Z,95872.77
2019-01-27T03:32:22.122Z,95871.05
2019-01-27T03:34:52.595Z,95868.36
2019-01-27T03:37:23.225Z,95864.97
2019-01-27T03:39:53.901Z,95857.40
2019-01-27T03:42:24.559Z,95852.89
2019-01-27T03:44:54.945Z,95844.98
2019-01-27T03:47:25.599Z,95849.87
2019-01-27T03:49:56.212Z,95845.13
2019-01-27T03:52:27.978Z,95843.78
2019-01-27T03:54:58.411Z,95849.64
2019-01-27T03:57:29.024Z,95845.95
2019-01-27T03:59:59.646Z,95845.47
2019-01-27T04:02:30.398Z,95840.25
2019-01-27T04:05:01.194Z,95829.52
2019-01-27T04:07:32.168Z,95833.54
2019-01-27T04:10:02.577Z,95822.95
2019-01-27T04:12:33.135Z,95818.41
2019-01-27T04:15:03.710Z,95807.34
2019-01-27T04:17:34.896Z,95804.66
2019-01-27T04:20:06.658Z,95805.62
2019-01-27T04:22:38.300Z,95802.45
2019-01-27T04:25:08.976Z,95804.80
2019-01-27T04:27:39.463Z,95803.80
2019-01-27T04:30:17.007Z,95796.75
2019-01-27T04:32:47.637Z,95789.19
2019-01-27T04:35:17.942Z,95785.64
2019-01-27T04:37:48.574Z,95787.36
2019-01-27T04:40:20.373Z,95786.50
2019-01-27T04:42:50.712Z,95778.59
2019-01-27T04:45:26.592Z,95771.37
2019-01-27T04:47:57.076Z,95762.98
2019-01-27T04:50:27.514Z,95757.77
2019-01-27T04:52:58.139Z,95756.42
2019-01-27T04:55:31.681Z,95749.72
2019-01-27T04:58:02.089Z,95750.06
2019-01-27T05:00:32.947Z,95744.69
2019-01-27T05:03:23.764Z,95742.02
2019-01-27T05:05:54.157Z,95741.53
2019-01-27T05:08:24.834Z,95742.64
2019-01-27T05:10:55.434Z,95743.02
2019-01-27T05:13:25.919Z,95734.11
2019-01-27T05:15:56.421Z,95726.91
2019-01-27T05:18:26.926Z,95715.81
2019-01-27T05:20:57.464Z,95719.35
2019-01-27T05:23:27.787Z,95719.84
2019-01-27T05:25:58.674Z,95718.16
2019-01-27T05:28:29.359Z,95715.59
2019-01-27T05:30:59.930Z,95716.44
2019-01-27T05:33:30.395Z,95709.40
2019-01-27T05:36:00.886Z,95710.22
2019-01-27T05:38:32.339Z,95705.00
2019-01-27T05:41:02.837Z,95693.79
2019-01-27T05:43:33.428Z,95695.47
2019-01-27T05:46:03.926Z,95688.42
2019-01-27T05:48:34.348Z,95693.30
2019-01-27T05:51:04.804Z,95695.13
2019-01-27T05:53:35.359Z,95691.25
2019-01-27T05:56:05.710Z,95695.27
2019-01-27T05:58:36.307Z,95699.64
2019-01-27T06:01:06.779Z,95696.09
2019-01-27T06:03:37.149Z,95677.32
2019-01-27T06:06:07.631Z,95680.00
2019-01-27T06:08:38.452Z,95681.98
2019-01-27T06:11:08.900Z,95686.00
2019-01-27T06:13:39.276Z,95683.83
2019-01-27T06:16:09.776Z,95678.81
2019-01-27T06:18:40.252Z,95678.33
2019-01-27T06:21:10.649Z,95676.98
2019-01-27T06:23:41.381Z,95666.88
2019-01-27T06:26:11.845Z,95662.86
2019-01-27T06:28:42.852Z,95663.72
2019-01-27T06:31:13.380Z,95666.03
2019-01-27T06:33:51.453Z,95670.42
2019-01-27T06:36:22.250Z,95663.58
2019-01-27T06:38:53.333Z,95664.91
2019-01-27T06:41:23.801Z,95655.67
2019-01-27T06:43:54.483Z,95659.55
2019-01-27T06:46:25.455Z,95658.69
2019-01-27T06:48:58.651Z,95653.11
2019-01-27T06:51:29.692Z,95651.13
2019-01-27T06:54:00.349Z,95647.00
2019-01-27T06:56:31.956Z,95637.09
2019-01-27T06:59:07.891Z,95650.50
2019-01-27T07:01:52.541Z,95639.66
2019-01-27T07:04:28.445Z,95643.16
2019-01-27T07:07:29.946Z,95626.25
2019-01-27T07:10:19.394Z,95620.37
2019-01-27T07:13:03.357Z,95628.08
2019-01-27T07:16:00.006Z,95620.52
2019-01-27T07:18:51.897Z,95608.30
2019-01-27T07:21:41.721Z,95607.66
2019-01-27T07:24:23.169Z,95602.30
2019-01-27T07:27:12.541Z,95599.98
2019-01-27T07:30:01.455Z,95595.48
2019-01-27T07:32:50.158Z,95598.87
2019-01-27T07:35:39.398Z,95581.28
2019-01-27T07:38:21.852Z,95579.80
2019-01-27T07:41:13.766Z,95567.09
2019-01-27T07:45:03.834Z,95557.57
2019-01-27T07:47:55.357Z,95558.33
2019-01-27T07:52:03.111Z,95550.56
2019-01-27T07:54:50.840Z,95552.32
2019-01-27T07:57:38.774Z,95545.98
2019-01-27T08:00:34.196Z,95562.56
2019-01-27T08:03:21.783Z,95550.80
2019-01-27T08:06:10.865Z,95539.05
2019-01-27T08:08:58.710Z,95539.27
2019-01-27T08:11:43.225Z,95541.32
2019-01-27T08:14:29.299Z,95524.03
2019-01-27T08:17:11.853Z,95524.22
2019-01-27T08:20:04.620Z,95524.92
2019-01-27T08:22:42.318Z,95519.77
2019-01-27T08:25:47.958Z,95523.31
2019-01-27T08:28:43.655Z,95516.59
2019-01-27T08:31:31.816Z,95517.64
2019-01-27T08:34:19.441Z,95515.81
2019-01-27T08:36:58.883Z,95508.95
2019-01-27T08:39:43.547Z,95510.02
2019-01-27T08:42:48.233Z,95505.36
2019-01-27T08:45:52.481Z,95506.21
2019-01-27T08:48:22.819Z,95496.87
2019-01-27T08:50:53.382Z,95488.67
2019-01-27T08:53:23.917Z,95484.34
2019-01-27T08:55:54.461Z,95477.78
2019-01-27T08:58:26.716Z,95480.47
2019-01-27T09:01:10.213Z,95477.78
2019-01-27T09:03:56.253Z,95475.31
2019-01-27T09:06:42.761Z,95475.95
2019-01-27T09:09:32.377Z,95476.28
2019-01-27T09:12:25.137Z,95467.11
2019-01-27T09:15:29.664Z,95466.25
2019-01-27T09:18:26.106Z,95461.25
2019-01-27T09:21:09.248Z,95461.73
2019-01-27T09:23:57.393Z,95466.13
2019-01-27T09:26:33.547Z,95458.26
2019-01-27T09:29:08.377Z,95453.34
2019-01-27T09:32:06.906Z,95453.59
2019-01-27T09:34:59.431Z,95453.95
2019-01-27T09:37:47.988Z,95451.27
2019-01-27T09:40:52.544Z,95449.31
2019-01-27T09:43:44.826Z,95447.97
2019-01-27T09:46:46.343Z,95436.37
2019-01-27T09:49:44.931Z,95430.73
2019-01-27T09:52:21.054Z,95431.43
2019-01-27T09:55:07.838Z,95409.31
2019-01-27T09:57:47.318Z,95411.34
2019-01-27T10:00:29.412Z,95408.84
2019-01-27T10:03:15.848Z,95406.84
2019-01-27T10:05:58.087Z,95413.44
2019-01-27T10:08:39.681Z,95396.11
2019-01-27T10:11:41.284Z,95393.78
2019-01-27T10:14:21.227Z,95388.41
2019-01-27T10:17:11.616Z,95373.48
2019-01-27T10:20:04.381Z,95372.35
2019-01-27T10:23:05.861Z,95372.41
2019-01-27T10:25:49.712Z,95374.59
2019-01-27T10:28:38.691Z,95366.02
2019-01-27T10:31:43.883Z,95368.05
2019-01-27T10:34:25.512Z,95361.02
2019-01-27T10:37:19.867Z,95365.25
2019-01-27T10:40:09.888Z,95360.20
2019-01-27T10:42:50.461Z,95353.16
2019-01-27T10:45:34.747Z,95339.20
2019-01-27T10:48:26.779Z,95341.24
2019-01-27T10:51:14.636Z,95329.16
2019-01-27T10:54:06.847Z,95319.63
2019-01-27T10:56:56.004Z,95317.92
2019-01-27T10:59:48.182Z,95319.63
2019-01-27T11:02:43.299Z,95314.95
2019-01-27T11:05:33.137Z,95310.11
2019-01-27T11:08:22.568Z,95303.03
2019-01-27T11:11:03.449Z,95296.03
2019-01-27T11:13:52.651Z,95292.69
2019-01-27T11:16:40.473Z,95292.89
2019-01-27T11:19:28.358Z,95285.84
2019-01-27T11:22:33.519Z,95275.80
2019-01-27T11:25:25.474Z,95270.91
2019-01-27T11:28:20.732Z,95268.75
2019-01-27T11:31:00.597Z,95259.19
2019-01-27T11:33:45.004Z,95262.56
2019-01-27T11:36:33.147Z,95259.51
2019-01-27T11:39:21.756Z,95256.83
2019-01-27T11:42:09.695Z,95256.79
2019-01-27T11:44:55.522Z,95264.84
2019-01-27T11:47:43.625Z,95264.03
2019-01-27T11:50:35.913Z,95263.66
2019-01-27T11:53:08.189Z,95264.69
2019-01-27T11:55:38.615Z,95255.28
2019-01-27T11:58:09.239Z,95262.98
2019-01-27T12:00:41.689Z,95254.75
2019-01-27T12:03:13.664Z,95254.75
2019-01-27T12:05:44.294Z,95258.78
2019-01-27T12:08:14.660Z,95257.11
2019-01-27T12:10:45.308Z,95256.09
2019-01-27T12:13:15.905Z,95245.52
2019-01-27T12:15:46.208Z,95249.05
2019-01-27T12:18:16.636Z,95241.52
2019-01-27T12:20:47.163Z,95247.91
2019-01-27T12:23:17.580Z,95240.34
2019-01-27T12:25:48.146Z,95244.86
2019-01-27T12:28:18.549Z,95246.56
2019-01-27T12:30:48.962Z,95232.61
2019-01-27T12:33:19.468Z,95238.50
2019-01-27T12:35:49.790Z,95224.71
2019-01-27T12:38:20.354Z,95239.69
2019-01-27T12:40:50.675Z,95233.13
2019-01-27T12:43:21.004Z,95236.31
2019-01-27T12:45:51.347Z,95235.26
2019-01-27T12:48:21.662Z,95231.23
2019-01-27T12:50:52.081Z,95224.39
2019-01-27T12:53:22.791Z,95226.22
2019-01-27T12:55:53.038Z,95218.32
2019-01-27T12:58:23.275Z,95226.38
2019-01-27T13:00:57.473Z,95201.84
2019-01-27T13:03:27.704Z,95212.59
2019-01-27T13:05:58.102Z,95221.14
2019-01-27T13:08:29.893Z,95209.05
2019-01-27T13:11:05.661Z,95206.36
2019-01-27T13:13:36.977Z,95211.61
2019-01-27T13:16:07.432Z,95204.37
2019-01-27T13:18:37.825Z,95196.31
2019-01-27T13:21:08.250Z,95196.31
2019-01-27T13:23:38.814Z,95200.70
2019-01-27T13:26:09.264Z,95194.31
2019-01-27T13:28:39.726Z,95208.43
2019-01-27T13:31:10.125Z,95201.02
2019-01-27T13:33:40.409Z,95207.61
2019-01-27T13:36:10.868Z,95208.43
2019-01-27T13:38:41.129Z,95196.02
2019-01-27T13:41:11.469Z,95184.25
2019-01-27T13:43:41.759Z,95193.66
2019-01-27T13:46:15.082Z,95199.39
2019-01-27T13:48:45.304Z,95197.03
2019-01-27T13:51:16.651Z,95192.67
2019-01-27T13:53:47.284Z,95194.67
2019-01-27T13:56:17.713Z,95194.18
2019-01-27T13:58:48.074Z,95189.98
2019-01-27T14:01:18.525Z,95193.00
2019-01-27T14:03:49.095Z,95191.66
2019-01-27T14:06:19.535Z,95181.44
2019-01-27T14:08:51.507Z,95188.84
2019-01-27T14:11:22.349Z,95187.82
2019-01-27T14:13:52.723Z,95191.00
2019-01-27T14:16:23.265Z,95193.00
2019-01-27T14:18:53.633Z,95201.75
2019-01-27T14:21:23.976Z,95204.76
2019-01-27T14:23:54.400Z,95197.69
2019-01-27T14:26:24.696Z,95186.28
2019-01-27T14:28:58.388Z,95181.27
2019-01-27T14:31:30.274Z,95194.02
2019-01-27T14:34:00.749Z,95193.52
2019-01-27T14:36:31.041Z,95192.18
2019-01-27T14:39:01.423Z,95201.42
2019-01-27T14:41:33.326Z,95193.84
2019-01-27T14:44:03.711Z,95193.36
2019-01-27T14:46:34.054Z,95193.55
2019-01-27T14:49:04.453Z,95187.98
2019-01-27T14:51:34.902Z,95198.90
2019-01-27T14:54:05.527Z,95197.55
2019-01-27T14:56:35.932Z,95188.31
2019-01-27T14:59:06.202Z,95205.64
2019-01-27T15:01:36.845Z,95199.06
2019-01-27T15:04:07.796Z,95194.70
2019-01-27T15:06:38.220Z,95198.05
2019-01-27T15:09:10.041Z,95185.47
2019-01-27T15:11:40.394Z,95182.22
2019-01-27T15:14:10.733Z,95180.88
2019-01-27T15:16:41.093Z,95193.33
2019-01-27T15:19:11.395Z,95189.13
2019-01-27T15:21:41.976Z,95184.94
2019-01-27T15:24:12.230Z,95194.02
2019-01-27T15:26:42.603Z,95199.55
2019-01-27T15:29:12.857Z,95200.08
2019-01-27T15:31:43.194Z,95192.51
2019-01-27T15:34:13.562Z,95199.58
2019-01-27T15:36:43.945Z,95198.41
2019-01-27T15:39:14.220Z,95194.05
2019-01-27T15:41:44.634Z,95191.69
2019-01-27T15:44:14.977Z,95190.87
2019-01-27T15:46:45.273Z,95185.33
2019-01-27T15:49:15.608Z,95191.03
2019-01-27T15:51:45.976Z,95181.79
2019-01-27T15:54:16.298Z,95194.73
2019-01-27T15:56:48.035Z,95200.80
2019-01-27T15:59:18.317Z,95197.45
2019-01-27T16:01:48.795Z,95197.45
2019-01-27T16:04:19.180Z,95201.81
2019-01-27T16:06:49.469Z,95211.22
2019-01-27T16:09:20.946Z,95214.06
2019-01-27T16:11:55.297Z,95207.19
2019-01-27T16:14:27.337Z,95217.77
2019-01-27T16:16:58.104Z,95214.23
2019-01-27T16:19:28.529Z,95203.81
2019-01-27T16:22:01.142Z,95207.34
2019-01-27T16:24:35.969Z,95205.68
2019-01-27T16:27:06.883Z,95201.29
2019-01-27T16:30:09.045Z,95203.31
2019-01-27T16:32:42.265Z,95207.70
2019-01-27T16:35:18.349Z,95207.84
2019-01-27T16:37:50.735Z,95201.13
2019-01-27T16:40:25.106Z,95205.34
2019-01-27T16:42:56.128Z,95206.53
2019-01-27T16:45:27.735Z,95206.89
2019-01-27T16:48:00.545Z,95213.08
2019-01-27T16:50:31.814Z,95207.55
2019-01-27T16:53:04.592Z,95211.41
2019-01-27T16:55:36.308Z,95206.56
2019-01-27T16:58:06.568Z,95205.58
2019-01-27T17:00:39.106Z,95197.67
2019-01-27T17:03:09.619Z,95205.61
2019-01-27T17:05:44.394Z,95193.16
2019-01-27T17:08:15.847Z,95206.78
2019-01-27T17:10:46.115Z,95196.03
2019-01-27T17:13:16.859Z,95201.73
2019-01-27T17:15:47.256Z,95200.39
2019-01-27T17:18:17.507Z,95186.81
2019-01-27T17:20:47.960Z,95197.05
2019-01-27T17:23:20.718Z,95206.13
2019-01-27T17:25:53.583Z,95205.83
2019-01-27T17:28:22.999Z,95196.42
2019-01-27T17:30:54.194Z,95193.59
2019-01-27T17:33:24.551Z,95196.29
2019-01-27T17:35:54.825Z,95207.04
2019-01-27T17:38:25.142Z,95203.50
2019-01-27T17:40:55.410Z,95203.83
2019-01-27T17:43:25.810Z,95207.73
2019-01-27T17:45:56.063Z,95206.87
2019-01-27T17:48:27.139Z,95215.27
2019-01-27T17:50:57.544Z,95207.20
2019-01-27T17:53:30.339Z,95210.55
2019-01-27T17:56:00.675Z,95214.44
2019-01-27T17:59:01.886Z,95209.07
2019-01-27T18:02:06.165Z,95199.66
2019-01-27T18:04:55.306Z,95195.95
2019-01-27T18:07:36.805Z,95184.55
2019-01-27T18:10:27.112Z,95188.74
2019-01-27T18:13:07.636Z,95185.23
2019-01-27T18:15:38.027Z,95172.14
2019-01-27T18:18:08.358Z,95171.13
2019-01-27T18:20:39.719Z,95169.98
2019-01-27T18:23:10.105Z,95167.78
2019-01-27T18:25:40.472Z,95166.27
2019-01-27T18:28:10.735Z,95170.17
2019-01-27T18:30:42.130Z,95164.27
2019-01-27T18:33:12.519Z,95164.27
2019-01-27T18:35:42.768Z,95169.50
2019-01-27T18:38:12.994Z,95170.33
2019-01-27T18:40:45.236Z,95161.27
2019-01-27T18:43:15.595Z,95163.11
2019-01-27T18:45:45.912Z,95166.16
2019-01-27T18:48:16.256Z,95166.16
2019-01-27T18:50:46.713Z,95166.31
2019-01-27T18:53:49.520Z,95175.59
2019-01-27T18:56:32.166Z,95161.79
2019-01-27T18:59:27.725Z,95169.86
2019-01-27T19:02:08.423Z,95153.06
2019-01-27T19:05:01.647Z,95159.45
2019-01-27T19:07:43.351Z,95159.10
2019-01-27T19:10:43.664Z,95156.77
2019-01-27T19:13:40.026Z,95166.18
2019-01-27T19:16:35.896Z,95160.14
2019-01-27T19:19:40.767Z,95161.63
2019-01-27T19:22:38.841Z,95162.64
2019-01-27T19:25:40.934Z,95152.21
2019-01-27T19:28:40.299Z,95157.45
2019-01-27T19:31:17.921Z,95138.95
2019-01-27T19:34:16.458Z,95151.05
2019-01-27T19:37:24.395Z,95150.07
2019-01-27T19:40:20.357Z,95145.67
2019-01-27T19:43:13.625Z,95151.05
2019-01-27T19:46:15.783Z,95134.07
2019-01-27T19:49:04.882Z,95159.48
2019-01-27T19:51:52.010Z,95157.97
2019-01-27T19:54:40.109Z,95160.30
2019-01-27T19:57:29.336Z,95164.50
2019-01-27T20:00:16.704Z,95154.77
2019-01-27T20:03:11.868Z,95150.73
2019-01-27T20:06:01.094Z,95156.43
2019-01-27T20:08:53.311Z,95161.13
2019-01-27T20:11:42.135Z,95153.55
2019-01-27T20:14:32.530Z,95148.72
2019-01-27T20:17:13.762Z,95155.28
2019-01-27T20:19:52.727Z,95159.31
2019-01-27T20:22:43.273Z,95148.61
2019-01-27T20:25:48.092Z,95148.10
2019-01-27T20:28:41.115Z,95143.36
2019-01-27T20:31:30.339Z,95144.67
2019-01-27T20:34:31.866Z,95135.75
2019-01-27T20:37:08.964Z,95125.30
2019-01-27T20:39:47.920Z,95133.37
2019-01-27T20:42:24.064Z,95127.19
2019-01-27T20:45:13.167Z,95113.09
2019-01-27T20:48:03.913Z,95109.20
2019-01-27T20:50:48.077Z,95101.80
2019-01-27T20:53:32.495Z,95100.13
2019-01-27T20:56:15.258Z,95099.64
2019-01-27T20:58:54.019Z,95100.32
2019-01-27T21:01:41.163Z,95096.95
2019-01-27T21:04:39.887Z,95082.98
2019-01-27T21:07:31.158Z,95085.67
2019-01-27T21:10:29.157Z,95081.47
2019-01-27T21:13:21.236Z,95074.08
2019-01-27T21:16:20.626Z,95061.13
2019-01-27T21:19:08.808Z,95063.80
2019-01-27T21:21:39.489Z,95054.22
2019-01-27T21:24:09.986Z,95057.27
2019-01-27T21:26:40.440Z,95065.66
2019-01-27T21:29:10.925Z,95062.80
2019-01-27T21:31:41.433Z,95068.89
2019-01-27T21:34:11.805Z,95069.40
2019-01-27T21:36:42.025Z,95069.53
2019-01-27T21:39:13.917Z,95052.38
2019-01-27T21:41:48.107Z,95042.97
2019-01-27T21:44:18.521Z,95038.60
2019-01-27T21:46:49.827Z,95037.42
2019-01-27T21:49:20.298Z,95035.09
2019-01-27T21:51:50.758Z,95025.33
2019-01-27T21:54:21.230Z,95033.22
2019-01-27T21:56:52.198Z,95030.53
2019-01-27T21:59:22.553Z,95027.84
2019-01-27T22:01:52.932Z,95039.95
2019-01-27T22:04:23.210Z,95034.73
2019-01-27T22:06:53.623Z,95037.13
2019-01-27T22:09:23.890Z,95040.47
2019-01-27T22:11:54.158Z,95030.87
2019-01-27T22:14:24.420Z,95031.71
2019-01-27T22:16:54.899Z,95030.69
2019-01-27T22:19:26.537Z,95030.02
2019-01-27T22:21:58.426Z,95031.86
2019-01-27T22:24:28.722Z,95039.25
2019-01-27T22:26:59.422Z,95036.06
2019-01-27T22:29:30.105Z,95028.84
2019-01-27T22:32:00.846Z,95023.95
2019-01-27T22:34:31.063Z,95026.98
2019-01-27T22:37:01.355Z,95029.31
2019-01-27T22:39:31.659Z,95022.77
2019-01-27T22:42:02.241Z,95022.27
2019-01-27T22:44:32.551Z,95023.09
2019-01-27T22:47:02.822Z,95020.58
2019-01-27T22:49:33.075Z,95015.69
2019-01-27T22:52:03.463Z,95022.75
2019-01-27T22:54:33.810Z,95013.16
2019-01-27T22:57:04.173Z,94998.05
2019-01-27T22:59:34.519Z,94996.70
2019-01-27T23:02:05.140Z,94995.86
2019-01-27T23:04:35.440Z,95002.85
2019-01-27T23:07:05.744Z,94988.41
2019-01-27T23:09:38.183Z,94993.43
2019-01-27T23:12:08.436Z,94995.30
2019-01-27T23:14:38.738Z,94988.23
2019-01-27T23:17:09.021Z,94990.06
2019-01-27T23:19:39.265Z,94992.73
2019-01-27T23:22:09.664Z,94994.44
2019-01-27T23:24:39.902Z,94978.80
2019-01-27T23:27:11.285Z,94972.42
2019-01-27T23:29:41.642Z,94978.66
2019-01-27T23:32:11.982Z,94974.44
2019-01-27T23:34:42.194Z,94965.52
2019-01-27T23:37:12.537Z,94964.17
2019-01-27T23:39:42.761Z,94960.49
2019-01-27T23:42:13.302Z,94950.91
2019-01-27T23:44:43.589Z,94947.53
2019-01-27T23:47:13.858Z,94942.34
2019-01-27T23:49:44.228Z,94947.84
2019-01-27T23:52:14.453Z,94943.49
2019-01-27T23:54:44.795Z,94950.20
2019-01-27T23:57:16.006Z,94949.36
2019-01-27T23:59:46.356Z,94952.53
